Time;durP1;ratioP1;P1;durP2;ratioP2;P2;SDS_P1;SDS_P2;PMS_P1;PMS_P2;Temp;Humidity;BMP_temperature;BMP_pressure;BME280_temperature;BME280_humidity;BME280_pressure;Samples;Min_cycle;Max_cycle;Signal;HPM_P1;HPM_P2
2022/07/22 00:01:30;;;;;;;11.48;5.93;;;23.20;99.90;;;;;;5081888;28;20080;-80
2022/07/22 00:03:56;;;;;;;7.30;4.43;;;23.10;99.90;;;;;;5081473;28;20070;-79
2022/07/22 00:06:22;;;;;;;9.70;5.32;;;23.10;99.90;;;;;;5082661;28;20497;-79
2022/07/22 00:08:48;;;;;;;8.25;5.43;;;23.00;99.90;;;;;;5087333;28;20050;-80
2022/07/22 00:11:14;;;;;;;10.77;6.40;;;22.90;99.90;;;;;;5083737;28;20029;-80
2022/07/22 00:13:42;;;;;;;8.73;5.15;;;22.90;99.90;;;;;;5085453;28;20028;-79
2022/07/22 00:16:08;;;;;;;7.47;5.18;;;22.80;99.90;;;;;;5091958;28;20432;-80
2022/07/22 00:18:34;;;;;;;9.63;6.20;;;22.80;99.90;;;;;;5087253;28;20031;-80
2022/07/22 00:21:00;;;;;;;7.38;5.22;;;22.80;99.90;;;;;;5082354;28;20055;-80
2022/07/22 00:23:26;;;;;;;9.90;6.13;;;22.80;99.90;;;;;;5084214;28;20441;-80
2022/07/22 00:25:53;;;;;;;7.85;5.25;;;22.70;99.90;;;;;;5085456;28;20063;-79
2022/07/22 00:28:19;;;;;;;8.85;5.18;;;22.70;99.90;;;;;;5097319;28;20077;-79
2022/07/22 00:30:45;;;;;;;9.88;6.00;;;22.60;99.90;;;;;;5095678;28;20598;-80
2022/07/22 00:33:11;;;;;;;10.82;5.78;;;22.60;99.90;;;;;;5081610;28;20055;-79
2022/07/22 00:35:37;;;;;;;10.30;5.85;;;22.50;99.90;;;;;;5079764;28;20043;-79
2022/07/22 00:38:03;;;;;;;7.95;5.65;;;22.50;99.90;;;;;;5086492;28;20869;-79
2022/07/22 00:40:29;;;;;;;8.10;6.10;;;22.50;99.90;;;;;;5082315;28;20488;-79
2022/07/22 00:42:57;;;;;;;13.55;6.10;;;22.40;99.90;;;;;;5082997;28;20415;-79
2022/07/22 00:45:23;;;;;;;10.43;6.00;;;22.40;99.90;;;;;;5080188;28;20031;-79
2022/07/22 00:47:49;;;;;;;8.88;5.70;;;22.40;99.90;;;;;;5079010;28;20024;-79
2022/07/22 00:50:16;;;;;;;10.48;5.63;;;22.40;99.90;;;;;;5079957;28;20024;-80
2022/07/22 00:52:43;;;;;;;9.55;5.80;;;22.40;99.90;;;;;;5080957;28;20064;-79
2022/07/22 00:55:10;;;;;;;10.40;6.05;;;22.40;99.90;;;;;;5077278;28;20024;-79
2022/07/22 00:57:36;;;;;;;11.00;6.22;;;22.40;99.90;;;;;;5087784;28;20085;-80
2022/07/22 01:00:04;;;;;;;10.63;5.70;;;22.40;99.90;;;;;;5092457;28;20023;-80
2022/07/22 01:02:30;;;;;;;8.52;5.60;;;22.30;99.90;;;;;;5079949;28;20032;-80
2022/07/22 01:04:56;;;;;;;8.93;5.43;;;22.30;99.90;;;;;;5091099;28;20032;-80
2022/07/22 01:07:22;;;;;;;7.68;5.95;;;22.30;99.90;;;;;;5082716;28;20032;-80
2022/07/22 01:09:48;;;;;;;8.52;5.78;;;22.30;99.90;;;;;;5091406;28;20032;-79
2022/07/22 01:12:14;;;;;;;11.82;5.50;;;22.30;99.90;;;;;;5079886;28;20035;-80
2022/07/22 01:14:40;;;;;;;12.15;6.55;;;22.30;99.90;;;;;;5079636;28;20028;-79
2022/07/22 01:17:06;;;;;;;9.90;5.43;;;22.30;99.90;;;;;;5082716;28;20439;-80
2022/07/22 01:19:32;;;;;;;10.00;5.65;;;22.30;99.90;;;;;;5078168;28;20024;-80
2022/07/22 01:21:58;;;;;;;7.70;5.57;;;22.20;99.90;;;;;;5079123;28;20040;-79
2022/07/22 01:24:24;;;;;;;9.80;6.10;;;22.20;99.90;;;;;;5089855;28;20028;-79
2022/07/22 01:26:50;;;;;;;9.18;5.47;;;22.20;99.90;;;;;;5079080;28;20046;-79
2022/07/22 01:29:16;;;;;;;9.30;6.03;;;22.20;99.90;;;;;;5088021;28;20370;-79
2022/07/22 01:31:42;;;;;;;8.52;5.55;;;22.20;99.90;;;;;;5096792;28;20034;-79
2022/07/22 01:34:08;;;;;;;9.52;6.03;;;22.20;99.90;;;;;;5090669;28;20031;-79
2022/07/22 01:36:34;;;;;;;8.32;5.88;;;22.20;99.90;;;;;;5083197;28;20024;-79
2022/07/22 01:39:00;;;;;;;6.95;5.38;;;22.20;99.90;;;;;;5082843;28;20679;-79
2022/07/22 01:41:26;;;;;;;7.82;5.80;;;22.10;99.90;;;;;;5079436;28;20091;-79
2022/07/22 01:43:52;;;;;;;9.88;5.50;;;22.10;99.90;;;;;;5078812;28;20020;-80
2022/07/22 01:46:18;;;;;;;11.10;5.75;;;22.10;99.90;;;;;;5085450;28;20079;-80
2022/07/22 01:48:44;;;;;;;10.15;6.22;;;22.10;99.90;;;;;;5084308;28;20024;-80
2022/07/22 01:51:10;;;;;;;10.75;6.20;;;22.10;99.90;;;;;;5077858;28;20051;-80
2022/07/22 01:53:36;;;;;;;8.50;5.65;;;22.00;99.90;;;;;;5078516;28;20032;-80
2022/07/22 01:56:03;;;;;;;11.57;6.28;;;22.00;99.90;;;;;;5080763;28;20411;-79
2022/07/22 01:58:29;;;;;;;9.73;6.03;;;21.90;99.90;;;;;;5077426;28;20015;-79
2022/07/22 02:00:55;;;;;;;6.78;5.50;;;21.90;99.90;;;;;;5083982;28;20099;-79
2022/07/22 02:03:21;;;;;;;10.18;5.50;;;21.90;99.90;;;;;;5082390;28;20012;-79
2022/07/22 02:05:47;;;;;;;8.63;5.63;;;21.80;99.90;;;;;;5078236;28;20103;-79
2022/07/22 02:08:15;;;;;;;10.40;5.78;;;21.80;99.90;;;;;;5077652;28;20046;-80
2022/07/22 02:10:41;;;;;;;10.50;6.63;;;21.80;99.90;;;;;;5084491;28;20040;-80
2022/07/22 02:13:08;;;;;;;9.38;5.93;;;21.80;99.90;;;;;;5079824;28;20024;-79
2022/07/22 02:15:34;;;;;;;8.05;5.85;;;21.80;99.90;;;;;;5091201;28;20054;-79
2022/07/22 02:18:00;;;;;;;10.32;6.20;;;21.80;99.90;;;;;;5085897;28;20021;-80
2022/07/22 02:20:26;;;;;;;8.25;5.47;;;21.80;99.90;;;;;;5076756;28;20039;-79
2022/07/22 02:22:52;;;;;;;8.32;4.72;;;21.70;99.90;;;;;;5078358;28;20192;-80
2022/07/22 02:25:18;;;;;;;10.70;5.43;;;21.80;99.90;;;;;;5082289;28;20052;-80
2022/07/22 02:27:44;;;;;;;8.05;6.05;;;21.80;99.90;;;;;;5077886;28;20108;-79
2022/07/22 02:30:12;;;;;;;6.50;4.82;;;21.90;99.90;;;;;;5093978;28;20038;-79
2022/07/22 02:32:39;;;;;;;10.60;5.30;;;22.00;99.90;;;;;;5096057;28;20099;-79
2022/07/22 02:35:05;;;;;;;7.85;5.75;;;22.00;99.90;;;;;;5091968;28;20103;-79
2022/07/22 02:37:31;;;;;;;8.32;5.60;;;22.00;99.90;;;;;;5094126;28;20100;-79
2022/07/22 02:40:00;;;;;;;7.90;5.40;;;21.90;99.90;;;;;;5088199;28;20103;-79
2022/07/22 02:42:26;;;;;;;9.75;5.65;;;21.80;99.90;;;;;;5096439;28;20065;-80
2022/07/22 02:44:52;;;;;;;7.38;5.15;;;21.70;99.90;;;;;;5083882;28;20036;-79
2022/07/22 02:47:20;;;;;;;6.93;5.05;;;21.70;99.90;;;;;;5089057;28;20023;-79
2022/07/22 02:49:46;;;;;;;10.98;6.13;;;21.60;99.90;;;;;;5090577;28;20036;-80
2022/07/22 02:52:15;;;;;;;6.32;5.20;;;21.60;99.90;;;;;;5093576;28;20040;-80
2022/07/22 02:54:41;;;;;;;8.55;6.05;;;21.60;99.90;;;;;;5090557;28;20477;-80
2022/07/22 02:57:06;;;;;;;9.07;5.97;;;21.50;99.90;;;;;;5081658;28;20131;-80
2022/07/22 02:59:32;;;;;;;7.80;6.15;;;21.50;99.90;;;;;;5082055;28;20457;-80
2022/07/22 03:01:58;;;;;;;12.45;6.70;;;21.40;99.90;;;;;;5096686;28;20016;-79
2022/07/22 03:04:24;;;;;;;9.90;5.90;;;21.40;99.90;;;;;;5097090;28;20024;-79
2022/07/22 03:06:50;;;;;;;7.78;5.93;;;21.40;99.90;;;;;;5082790;28;20024;-79
2022/07/22 03:09:16;;;;;;;13.45;7.32;;;21.40;99.90;;;;;;5096423;28;20066;-79
2022/07/22 03:11:42;;;;;;;9.88;6.57;;;21.40;99.90;;;;;;5088180;28;20016;-79
2022/07/22 03:14:08;;;;;;;9.07;5.85;;;21.30;99.90;;;;;;5081037;28;20490;-79
2022/07/22 03:16:34;;;;;;;7.97;5.97;;;21.30;99.90;;;;;;5080847;28;20148;-79
2022/07/22 03:18:59;;;;;;;12.32;6.72;;;21.30;99.90;;;;;;5088639;28;20036;-79
2022/07/22 03:21:25;;;;;;;9.52;7.00;;;21.30;99.90;;;;;;5075345;28;20157;-79
2022/07/22 03:23:53;;;;;;;12.30;7.28;;;21.20;99.90;;;;;;5075668;28;20024;-79
2022/07/22 03:26:20;;;;;;;10.20;7.07;;;21.20;99.90;;;;;;5077930;28;20020;-79
2022/07/22 03:28:47;;;;;;;10.25;6.35;;;21.20;99.90;;;;;;5095909;28;20103;-79
2022/07/22 03:31:13;;;;;;;10.38;6.78;;;21.20;99.90;;;;;;5094661;28;20032;-79
2022/07/22 03:33:39;;;;;;;14.13;6.70;;;21.20;99.90;;;;;;5092289;28;20024;-78
2022/07/22 03:36:05;;;;;;;10.15;7.07;;;21.10;99.90;;;;;;5094539;28;20024;-78
2022/07/22 03:38:33;;;;;;;10.27;6.53;;;21.00;99.90;;;;;;5084143;28;20036;-78
2022/07/22 03:40:59;;;;;;;13.18;6.63;;;21.00;99.90;;;;;;5088276;28;20131;-79
2022/07/22 03:43:25;;;;;;;8.90;6.63;;;21.00;99.90;;;;;;5081983;28;20086;-79
2022/07/22 03:45:50;;;;;;;9.70;7.68;;;20.90;99.90;;;;;;5094027;28;20024;-79
2022/07/22 03:48:19;;;;;;;9.95;6.80;;;20.80;99.90;;;;;;5089085;28;20024;-78
2022/07/22 03:50:44;;;;;;;10.20;6.28;;;20.90;99.90;;;;;;5090844;28;20391;-78
2022/07/22 03:53:10;;;;;;;12.98;6.35;;;20.80;99.90;;;;;;5084492;28;20024;-79
2022/07/22 03:55:37;;;;;;;11.10;6.65;;;20.90;99.90;;;;;;5095444;28;20419;-78
2022/07/22 03:58:03;;;;;;;13.25;6.88;;;20.90;99.90;;;;;;5095375;28;20032;-77
2022/07/22 04:00:29;;;;;;;11.40;6.80;;;20.80;99.90;;;;;;5093953;28;20016;-77
2022/07/22 04:02:55;;;;;;;11.38;7.57;;;20.80;99.90;;;;;;5093266;28;20016;-77
2022/07/22 04:05:21;;;;;;;13.10;7.32;;;20.80;99.90;;;;;;5091848;28;20020;-77
2022/07/22 04:07:46;;;;;;;14.55;7.18;;;20.70;99.90;;;;;;5092776;28;20032;-77
2022/07/22 04:10:13;;;;;;;15.30;7.13;;;20.70;99.90;;;;;;5095625;28;20024;-77
2022/07/22 04:12:40;;;;;;;8.45;6.85;;;20.70;99.90;;;;;;5076636;28;20477;-77
2022/07/22 04:15:07;;;;;;;10.65;7.13;;;20.70;99.90;;;;;;5093087;28;20028;-77
2022/07/22 04:17:34;;;;;;;8.93;7.03;;;20.70;99.90;;;;;;5081129;28;20485;-78
2022/07/22 04:20:00;;;;;;;15.48;7.05;;;20.70;99.90;;;;;;5082815;28;20061;-78
2022/07/22 04:22:29;;;;;;;7.68;6.50;;;20.80;99.90;;;;;;5086156;28;20429;-78
2022/07/22 04:24:55;;;;;;;10.35;6.57;;;21.00;99.90;;;;;;5080230;28;20027;-77
2022/07/22 04:27:21;;;;;;;8.13;6.45;;;21.20;99.90;;;;;;5076667;28;20439;-77
2022/07/22 04:29:47;;;;;;;15.45;6.80;;;21.30;99.90;;;;;;5092790;28;20044;-78
2022/07/22 04:32:13;;;;;;;13.35;5.80;;;21.40;99.90;;;;;;5098548;28;20032;-77
2022/07/22 04:34:39;;;;;;;10.73;6.53;;;21.40;99.90;;;;;;5095783;28;20044;-78
2022/07/22 04:37:05;;;;;;;13.15;6.88;;;21.50;99.90;;;;;;5098451;28;20016;-77
2022/07/22 04:39:31;;;;;;;8.60;6.63;;;21.50;99.90;;;;;;5092767;28;20123;-78
2022/07/22 04:41:57;;;;;;;11.32;6.30;;;21.50;99.90;;;;;;5091902;28;20034;-78
2022/07/22 04:44:23;;;;;;;11.73;6.35;;;21.50;99.90;;;;;;5090044;28;20067;-78
2022/07/22 04:46:49;;;;;;;10.98;6.30;;;21.50;99.90;;;;;;5093917;28;20028;-77
2022/07/22 04:49:15;;;;;;;9.57;6.50;;;21.60;99.90;;;;;;5095966;28;20092;-78
2022/07/22 04:51:41;;;;;;;8.85;6.05;;;21.60;99.90;;;;;;5083834;28;20059;-79
2022/07/22 04:54:06;;;;;;;10.52;6.25;;;21.60;99.90;;;;;;5086271;28;20046;-79
2022/07/22 04:56:35;;;;;;;13.80;6.57;;;21.60;99.90;;;;;;5081967;28;20039;-77
2022/07/22 04:59:01;;;;;;;9.00;6.28;;;21.60;99.90;;;;;;5096287;28;20085;-78
2022/07/22 05:01:27;;;;;;;12.30;6.72;;;21.60;99.90;;;;;;5097681;28;20107;-78
2022/07/22 05:03:53;;;;;;;13.23;6.60;;;21.60;99.90;;;;;;5097341;28;20032;-79
2022/07/22 05:06:21;;;;;;;10.98;6.53;;;21.60;99.90;;;;;;5089574;28;20103;-78
2022/07/22 05:08:47;;;;;;;10.55;6.60;;;21.70;99.90;;;;;;5085506;28;20025;-78
2022/07/22 05:11:13;;;;;;;12.25;6.47;;;21.70;99.90;;;;;;5095873;28;20030;-78
2022/07/22 05:13:39;;;;;;;11.60;6.60;;;21.70;99.90;;;;;;5094670;28;20101;-79
2022/07/22 05:16:06;;;;;;;10.68;6.20;;;21.70;99.90;;;;;;5084424;28;20017;-79
2022/07/22 05:18:32;;;;;;;7.18;5.63;;;21.70;99.90;;;;;;5099009;28;20050;-80
2022/07/22 05:20:58;;;;;;;13.40;6.85;;;21.70;99.90;;;;;;5095930;28;20052;-79
2022/07/22 05:23:24;;;;;;;12.02;6.28;;;21.70;99.90;;;;;;5097587;28;20024;-79
2022/07/22 05:25:50;;;;;;;11.05;7.80;;;21.70;99.90;;;;;;5097914;28;20057;-79
2022/07/22 05:28:19;;;;;;;12.57;7.18;;;21.70;99.90;;;;;;5080615;28;20020;-79
2022/07/22 05:30:46;;;;;;;12.07;6.75;;;21.80;99.90;;;;;;5097741;28;20077;-80
2022/07/22 05:33:14;;;;;;;12.77;6.47;;;21.80;99.90;;;;;;5090316;28;20039;-79
2022/07/22 05:35:42;;;;;;;12.93;6.85;;;21.80;99.90;;;;;;5095346;28;20016;-79
2022/07/22 05:38:08;;;;;;;8.75;5.60;;;21.80;99.90;;;;;;5091629;28;20028;-80
2022/07/22 05:40:37;;;;;;;12.27;6.30;;;21.90;99.90;;;;;;5096782;28;20020;-78
2022/07/22 05:43:03;;;;;;;13.20;7.53;;;21.90;99.90;;;;;;5085006;28;20107;-79
2022/07/22 05:45:29;;;;;;;10.98;6.43;;;21.90;99.90;;;;;;5092664;28;20027;-79
2022/07/22 05:47:54;;;;;;;10.50;6.20;;;21.90;99.90;;;;;;5093224;28;20388;-79
2022/07/22 05:50:23;;;;;;;11.25;6.55;;;22.00;99.90;;;;;;5089413;28;20392;-80
2022/07/22 05:52:48;;;;;;;13.38;6.35;;;22.00;99.90;;;;;;5096791;28;20051;-80
2022/07/22 05:55:14;;;;;;;12.98;6.47;;;22.10;99.90;;;;;;5098104;28;20032;-81
2022/07/22 05:57:40;;;;;;;11.05;7.28;;;22.10;99.90;;;;;;5097127;28;20127;-79
2022/07/22 06:00:07;;;;;;;12.20;7.07;;;22.20;99.90;;;;;;5096733;28;20028;-79
2022/07/22 06:02:33;;;;;;;15.32;7.10;;;22.20;99.90;;;;;;5094251;28;20032;-80
2022/07/22 06:05:05;;;;;;;13.32;6.50;;;22.40;99.90;;;;;;5093759;28;20024;-80
2022/07/22 06:07:31;;;;;;;10.57;6.78;;;22.50;99.90;;;;;;5092737;28;20500;-78
2022/07/22 06:10:00;;;;;;;11.75;6.57;;;22.50;99.90;;;;;;5090737;28;20043;-79
2022/07/22 06:12:28;;;;;;;15.52;7.40;;;22.60;99.90;;;;;;5078783;28;20031;-80
2022/07/22 06:14:54;;;;;;;12.60;6.75;;;22.70;99.90;;;;;;5087442;28;20028;-80
2022/07/22 06:17:20;;;;;;;10.38;6.95;;;22.70;99.90;;;;;;5083014;28;20035;-77
2022/07/22 06:19:48;;;;;;;18.65;8.15;;;22.60;99.90;;;;;;5094063;28;20113;-79
2022/07/22 06:22:17;;;;;;;17.38;7.53;;;22.70;99.90;;;;;;5098335;28;20024;-80
2022/07/22 06:24:43;;;;;;;23.60;7.93;;;22.70;99.90;;;;;;5086728;28;20958;-79
2022/07/22 06:27:09;;;;;;;11.00;6.35;;;22.80;99.90;;;;;;5085331;28;20016;-78
2022/07/22 06:29:38;;;;;;;11.48;6.80;;;22.90;99.90;;;;;;5096430;28;20046;-79
2022/07/22 06:32:04;;;;;;;15.02;7.38;;;22.90;99.90;;;;;;5084850;28;20451;-79
2022/07/22 06:34:30;;;;;;;11.27;7.60;;;22.90;99.90;;;;;;5092229;28;20063;-79
2022/07/22 06:36:56;;;;;;;15.80;7.78;;;23.00;99.90;;;;;;5096460;28;20024;-79
2022/07/22 06:39:22;;;;;;;11.68;7.22;;;23.10;99.90;;;;;;5091296;28;20029;-79
2022/07/22 06:41:47;;;;;;;16.38;8.10;;;23.00;99.90;;;;;;5081210;28;20021;-79
2022/07/22 06:44:13;;;;;;;14.05;7.20;;;23.00;99.90;;;;;;5092096;28;20039;-79
2022/07/22 06:46:39;;;;;;;12.73;7.32;;;22.90;99.90;;;;;;5085128;28;20021;-79
2022/07/22 06:49:06;;;;;;;12.60;7.47;;;23.00;99.90;;;;;;5077824;28;20017;-79
2022/07/22 06:51:32;;;;;;;13.80;6.38;;;23.00;99.90;;;;;;5086421;28;20073;-79
2022/07/22 06:53:58;;;;;;;16.13;7.53;;;23.00;99.90;;;;;;5083566;28;20469;-79
2022/07/22 06:56:24;;;;;;;15.35;7.50;;;23.10;99.90;;;;;;5081019;28;20444;-80
2022/07/22 06:58:50;;;;;;;18.27;7.90;;;23.10;99.90;;;;;;5087806;28;20056;-78
2022/07/22 07:01:15;;;;;;;23.02;9.02;;;23.10;99.90;;;;;;5081733;28;20048;-80
2022/07/22 07:03:41;;;;;;;15.55;7.30;;;23.10;99.90;;;;;;5079679;28;20477;-79
2022/07/22 07:06:11;;;;;;;14.27;8.15;;;23.20;99.90;;;;;;5088498;28;20021;-80
2022/07/22 07:08:38;;;;;;;17.98;8.00;;;23.20;99.90;;;;;;5091942;28;20028;-79
2022/07/22 07:11:04;;;;;;;16.23;7.63;;;23.20;99.90;;;;;;5085304;28;20020;-78
2022/07/22 07:13:30;;;;;;;17.80;8.45;;;23.20;99.90;;;;;;5088674;28;20024;-79
2022/07/22 07:15:56;;;;;;;14.80;7.40;;;23.10;99.90;;;;;;5083112;28;20036;-78
2022/07/22 07:18:22;;;;;;;16.52;8.05;;;23.10;99.90;;;;;;5079323;28;20265;-78
2022/07/22 07:20:48;;;;;;;22.92;8.77;;;23.20;99.90;;;;;;5074995;28;20115;-80
2022/07/22 07:23:14;;;;;;;16.95;7.93;;;23.20;99.90;;;;;;5092045;28;20024;-80
2022/07/22 07:25:40;;;;;;;18.98;7.55;;;23.30;99.90;;;;;;5081976;28;20024;-79
2022/07/22 07:28:06;;;;;;;14.15;7.78;;;23.30;99.90;;;;;;5096709;28;20547;-80
2022/07/22 07:30:32;;;;;;;17.48;8.40;;;23.30;99.90;;;;;;5096433;28;20016;-79
2022/07/22 07:33:00;;;;;;;20.33;8.85;;;23.30;99.90;;;;;;5092992;28;20024;-79
2022/07/22 07:35:26;;;;;;;18.08;8.15;;;23.40;99.90;;;;;;5092649;28;20434;-80
2022/07/22 07:37:53;;;;;;;13.68;7.82;;;23.50;99.90;;;;;;5092529;28;20572;-79
2022/07/22 07:40:19;;;;;;;20.70;7.75;;;23.50;99.90;;;;;;5081255;28;20021;-79
2022/07/22 07:42:45;;;;;;;17.20;8.63;;;23.50;99.90;;;;;;5085903;28;20029;-79
2022/07/22 07:45:11;;;;;;;13.02;6.72;;;23.60;99.90;;;;;;5089924;28;20020;-78
2022/07/22 07:47:37;;;;;;;22.33;7.43;;;23.60;99.90;;;;;;5084952;28;20056;-80
2022/07/22 07:50:07;;;;;;;17.92;9.07;;;23.60;99.90;;;;;;5079061;28;20082;-79
2022/07/22 07:52:47;;;;;;;20.20;8.73;;;23.80;99.90;;;;;;5079491;28;20107;-80
2022/07/22 07:55:13;;;;;;;18.33;8.27;;;24.00;99.90;;;;;;5080564;28;20063;-84
2022/07/22 07:57:40;;;;;;;18.10;7.28;;;24.00;99.90;;;;;;5092168;28;20024;-80
2022/07/22 08:00:09;;;;;;;14.35;8.07;;;24.10;99.90;;;;;;5082082;28;20050;-81
2022/07/22 08:02:35;;;;;;;17.77;8.45;;;24.10;99.90;;;;;;5088538;28;20068;-79
2022/07/22 08:05:01;;;;;;;17.75;7.32;;;24.10;99.90;;;;;;5095753;28;20170;-80
2022/07/22 08:07:28;;;;;;;12.02;6.82;;;24.20;99.90;;;;;;5090084;28;20111;-78
2022/07/22 08:09:54;;;;;;;12.38;7.22;;;24.30;99.90;;;;;;5078905;28;20027;-79
2022/07/22 08:12:20;;;;;;;20.33;7.55;;;24.40;99.90;;;;;;5081360;28;20033;-78
2022/07/22 08:14:49;;;;;;;16.27;7.70;;;24.60;99.90;;;;;;5096580;28;20028;-81
2022/07/22 08:17:15;;;;;;;15.50;7.35;;;24.70;99.90;;;;;;5093714;28;20025;-81
2022/07/22 08:19:40;;;;;;;16.15;7.95;;;24.60;99.90;;;;;;5092016;28;20026;-82
2022/07/22 08:22:06;;;;;;;29.20;8.38;;;24.60;99.90;;;;;;5091082;28;20016;-82
2022/07/22 08:24:32;;;;;;;18.65;7.72;;;24.70;99.90;;;;;;5091601;28;20514;-82
2022/07/22 08:26:58;;;;;;;11.27;7.60;;;24.70;99.90;;;;;;5094151;28;20062;-81
2022/07/22 08:29:24;;;;;;;15.00;6.55;;;24.90;99.90;;;;;;5091101;28;20028;-82
2022/07/22 08:31:50;;;;;;;18.23;7.10;;;25.10;99.90;;;;;;5087408;28;20028;-82
2022/07/22 08:34:16;;;;;;;16.02;7.13;;;25.10;99.90;;;;;;5089618;28;20483;-82
2022/07/22 08:36:42;;;;;;;18.02;6.97;;;25.20;99.90;;;;;;5083174;28;20021;-81
2022/07/22 08:39:07;;;;;;;20.05;7.30;;;25.20;99.90;;;;;;5086897;28;20020;-82
2022/07/22 08:41:36;;;;;;;15.18;7.57;;;25.20;99.90;;;;;;5098625;28;20020;-84
2022/07/22 08:44:04;;;;;;;12.25;7.00;;;25.20;99.90;;;;;;5098483;28;20032;-84
2022/07/22 08:46:30;;;;;;;14.75;6.85;;;25.10;99.90;;;;;;5085536;28;20218;-83
2022/07/22 08:49:01;;;;;;;16.15;7.60;;;25.00;99.90;;;;;;5096684;28;20079;-82
2022/07/22 08:51:28;;;;;;;18.27;7.35;;;24.90;99.90;;;;;;5083230;28;20040;-82
2022/07/22 08:53:54;;;;;;;26.48;8.85;;;24.90;99.90;;;;;;5094662;28;20032;-81
2022/07/22 08:56:20;;;;;;;12.10;7.47;;;24.90;99.90;;;;;;5081176;28;20107;-80
2022/07/22 08:58:46;;;;;;;19.02;7.32;;;25.00;99.90;;;;;;5080402;28;20057;-81
2022/07/22 09:01:15;;;;;;;16.92;7.65;;;25.00;99.90;;;;;;5083921;28;20024;-80
2022/07/22 09:03:52;;;;;;;16.75;7.35;;;25.00;99.90;;;;;;5091919;28;20381;-80
2022/07/22 09:06:20;;;;;;;20.42;7.63;;;25.20;99.90;;;;;;5090226;28;20024;-80
2022/07/22 09:09:04;;;;;;;15.50;6.55;;;25.40;99.90;;;;;;5084592;28;20077;-83
2022/07/22 09:11:31;;;;;;;15.00;7.13;;;25.70;99.90;;;;;;5085532;28;20384;-82
2022/07/22 09:13:58;;;;;;;16.60;7.30;;;25.80;99.90;;;;;;5093077;28;20115;-80
2022/07/22 09:16:43;;;;;;;14.00;7.03;;;25.90;99.90;;;;;;5085655;28;20016;-81
2022/07/22 09:19:10;;;;;;;18.02;7.32;;;26.10;99.90;;;;;;5089153;28;20024;-81
2022/07/22 09:21:39;;;;;;;17.83;7.53;;;26.10;99.90;;;;;;5096295;28;20021;-80
2022/07/22 09:24:06;;;;;;;14.02;6.70;;;26.20;99.90;;;;;;5082273;28;20016;-81
2022/07/22 09:26:34;;;;;;;12.40;6.75;;;26.10;99.90;;;;;;5081790;28;20025;-82
2022/07/22 09:29:02;;;;;;;12.63;6.82;;;26.10;99.90;;;;;;5088220;28;20032;-79
2022/07/22 09:31:36;;;;;;;11.55;6.97;;;26.30;99.90;;;;;;5082252;28;20052;-81
2022/07/22 09:34:25;;;;;;;17.92;7.28;;;26.40;99.90;;;;;;5087444;28;20028;-79
2022/07/22 09:37:17;;;;;;;14.95;6.68;;;26.40;99.90;;;;;;5079758;28;20055;-79
2022/07/22 09:39:43;;;;;;;12.55;6.68;;;26.40;99.90;;;;;;5093668;28;20449;-81
2022/07/22 09:42:08;;;;;;;10.85;5.93;;;26.40;99.90;;;;;;5083930;28;20141;-82
2022/07/22 09:44:34;;;;;;;14.48;7.30;;;26.60;99.90;;;;;;5090800;28;20066;-78
2022/07/22 09:47:29;;;;;;;15.45;6.47;;;26.90;99.90;;;;;;5095082;28;20369;-81
2022/07/22 09:49:55;;;;;;;14.90;6.57;;;27.20;99.90;;;;;;5079682;28;20052;-79
2022/07/22 09:52:22;;;;;;;16.92;6.85;;;27.30;99.90;;;;;;5092544;28;20454;-77
2022/07/22 09:54:48;;;;;;;12.82;6.72;;;27.40;99.90;;;;;;5079770;28;20059;-76
2022/07/22 09:57:14;;;;;;;14.05;7.10;;;27.50;99.90;;;;;;5089890;28;20013;-78
2022/07/22 09:59:40;;;;;;;13.55;7.03;;;27.60;99.90;;;;;;5081443;28;20036;-78
2022/07/22 10:02:08;;;;;;;14.20;6.70;;;27.70;99.90;;;;;;5081190;28;20402;-78
2022/07/22 10:04:35;;;;;;;11.57;5.68;;;27.70;99.90;;;;;;5079308;28;20112;-79
2022/07/22 10:07:02;;;;;;;9.70;5.65;;;27.70;99.90;;;;;;5081816;28;20369;-78
2022/07/22 10:09:29;;;;;;;17.90;6.93;;;27.60;99.90;;;;;;5078455;28;20555;-79
2022/07/22 10:11:56;;;;;;;13.00;6.35;;;27.50;99.90;;;;;;5089038;28;20031;-78
2022/07/22 10:14:23;;;;;;;17.38;6.85;;;27.30;99.90;;;;;;5077353;28;20119;-78
2022/07/22 10:16:49;;;;;;;14.70;6.72;;;27.20;99.90;;;;;;5084585;28;20039;-77
2022/07/22 10:19:15;;;;;;;16.10;6.30;;;27.40;99.90;;;;;;5094227;28;20081;-78
2022/07/22 10:21:43;;;;;;;13.85;7.00;;;27.70;99.90;;;;;;5080889;28;20047;-79
2022/07/22 10:24:17;;;;;;;16.80;6.65;;;28.10;99.90;;;;;;5092353;28;20024;-78
2022/07/22 10:26:52;;;;;;;10.52;5.55;;;28.20;99.90;;;;;;5074425;28;20547;-78
2022/07/22 10:29:44;;;;;;;14.23;6.47;;;28.10;99.90;;;;;;5078503;28;20042;-78
2022/07/22 10:32:16;;;;;;;23.15;6.10;;;28.10;99.90;;;;;;5087171;28;20389;-78
2022/07/22 10:34:43;;;;;;;14.90;5.80;;;28.10;99.90;;;;;;5093913;28;20034;-78
2022/07/22 10:37:43;;;;;;;9.27;5.60;;;28.20;99.90;;;;;;5088576;28;20115;-77
2022/07/22 10:40:16;;;;;;;13.45;5.80;;;28.20;99.90;;;;;;5091296;28;20047;-77
2022/07/22 10:43:03;;;;;;;13.02;6.47;;;28.20;99.90;;;;;;5085168;28;20027;-77
2022/07/22 10:45:43;;;;;;;12.45;6.00;;;28.40;99.90;;;;;;5089969;28;20377;-75
2022/07/22 10:48:12;;;;;;;14.05;6.03;;;28.50;99.90;;;;;;5087088;28;20025;-78
2022/07/22 10:50:43;;;;;;;9.85;5.85;;;28.40;99.90;;;;;;5089976;28;20042;-77
2022/07/22 10:53:10;;;;;;;9.65;6.22;;;28.60;99.90;;;;;;5083279;28;20085;-77
2022/07/22 10:55:37;;;;;;;10.52;5.85;;;28.70;99.90;;;;;;5095128;28;20082;-79
2022/07/22 10:58:38;;;;;;;11.05;6.40;;;28.60;99.90;;;;;;5097020;28;20090;-78
2022/07/22 11:01:09;;;;;;;12.13;5.57;;;28.40;99.90;;;;;;5063147;28;20027;-78
2022/07/22 11:03:38;;;;;;;11.32;5.47;;;28.50;99.90;;;;;;5095170;28;20035;-78
2022/07/22 11:06:17;;;;;;;13.50;6.07;;;28.70;99.90;;;;;;5095434;28;20069;-78
2022/07/22 11:08:44;;;;;;;12.43;5.60;;;28.60;99.90;;;;;;5095235;28;20070;-78
2022/07/22 11:11:10;;;;;;;8.18;5.22;;;28.80;99.70;;;;;;5087398;28;20035;-79
2022/07/22 11:13:39;;;;;;;11.18;5.82;;;28.90;99.10;;;;;;5080247;28;20028;-78
2022/07/22 11:16:22;;;;;;;12.05;5.60;;;28.90;98.30;;;;;;5078139;28;20025;-76
2022/07/22 11:18:56;;;;;;;15.90;5.88;;;28.80;98.20;;;;;;5080831;28;20024;-75
2022/07/22 11:21:25;;;;;;;12.55;5.95;;;28.90;98.30;;;;;;5094453;28;20021;-77
2022/07/22 11:23:52;;;;;;;12.10;5.22;;;29.00;98.60;;;;;;5094939;28;20028;-76
2022/07/22 11:26:40;;;;;;;11.60;5.78;;;29.00;97.50;;;;;;5093692;28;20016;-78
2022/07/22 11:29:08;;;;;;;10.70;6.28;;;29.00;97.20;;;;;;5093850;28;20488;-76
2022/07/22 11:31:34;;;;;;;11.82;5.68;;;28.90;97.40;;;;;;5076446;28;20020;-76
2022/07/22 11:34:13;;;;;;;10.15;5.68;;;29.20;97.20;;;;;;5080832;28;20074;-76
2022/07/22 11:36:41;;;;;;;8.88;5.10;;;29.20;97.20;;;;;;5090233;28;20066;-76
2022/07/22 11:39:09;;;;;;;8.30;5.22;;;29.20;96.70;;;;;;5090290;28;20389;-77
2022/07/22 11:41:35;;;;;;;11.23;5.72;;;29.30;97.40;;;;;;5085145;28;20055;-77
2022/07/22 11:44:02;;;;;;;13.38;5.70;;;29.40;97.40;;;;;;5095404;28;20096;-76
2022/07/22 11:46:28;;;;;;;10.90;5.70;;;29.40;97.40;;;;;;5100547;28;20030;-79
2022/07/22 11:48:56;;;;;;;13.80;5.78;;;29.40;97.40;;;;;;5098927;28;20565;-77
2022/07/22 11:51:31;;;;;;;14.60;5.70;;;29.40;97.90;;;;;;5092235;28;20055;-77
2022/07/22 11:53:57;;;;;;;11.85;6.28;;;29.70;97.90;;;;;;5084802;28;20035;-77
2022/07/22 11:56:24;;;;;;;12.32;5.10;;;30.00;97.00;;;;;;5092012;28;20024;-76
2022/07/22 11:58:55;;;;;;;11.63;5.68;;;30.10;96.70;;;;;;5088453;28;20020;-76
2022/07/22 12:01:24;;;;;;;12.15;5.60;;;30.10;96.80;;;;;;5100086;28;20061;-78
2022/07/22 12:03:53;;;;;;;13.25;5.38;;;29.90;96.90;;;;;;5084785;28;20020;-77
2022/07/22 12:06:21;;;;;;;16.10;4.35;;;29.70;96.70;;;;;;5096500;28;20031;-79
2022/07/22 12:08:54;;;;;;;10.25;5.18;;;29.40;97.10;;;;;;5093220;28;20510;-78
2022/07/22 12:11:24;;;;;;;12.80;4.55;;;29.20;97.40;;;;;;5085181;28;20072;-78
2022/07/22 12:13:51;;;;;;;;;;;29.40;97.30;;;;;;5085760;28;20069;-78
2022/07/22 12:16:22;;;;;;;14.68;5.57;;;29.70;97.20;;;;;;5096189;28;19999;-78
2022/07/22 12:19:00;;;;;;;17.58;5.50;;;29.50;96.60;;;;;;5085263;28;20103;-77
2022/07/22 12:21:28;;;;;;;11.27;4.97;;;29.30;97.20;;;;;;5085478;28;20074;-76
2022/07/22 12:24:00;;;;;;;9.13;4.93;;;29.60;97.20;;;;;;5093655;28;20483;-77
2022/07/22 12:26:44;;;;;;;6.85;4.15;;;29.90;96.30;;;;;;5088495;28;20031;-76
2022/07/22 12:29:21;;;;;;;11.50;4.68;;;29.80;95.60;;;;;;5084951;28;20027;-77
2022/07/22 12:32:05;;;;;;;13.18;5.15;;;29.90;95.70;;;;;;5089710;28;20016;-76
2022/07/22 12:34:45;;;;;;;8.95;4.75;;;29.50;95.90;;;;;;5093487;28;20107;-76
2022/07/22 12:37:21;;;;;;;11.73;4.40;;;29.60;96.20;;;;;;5092958;28;20408;-76
2022/07/22 12:40:15;;;;;;;10.02;4.85;;;29.90;95.80;;;;;;5086876;28;20453;-78
2022/07/22 12:42:43;;;;;;;8.65;4.07;;;29.80;95.50;;;;;;5086357;28;20027;-77
2022/07/22 12:45:21;;;;;;;10.30;4.28;;;29.70;95.90;;;;;;5086021;28;20526;-78